sensor_id;sensor_type;location;lat;lon;timestamp;P1;durP1;ratioP1;P2;durP2;ratioP2
10365;SDS011;5229;41.820;23.490;2022-08-21T00:01:12;3.50;;;1.50;;
10365;SDS011;5229;41.820;23.490;2022-08-21T00:03:42;2.37;;;1.77;;
10365;SDS011;5229;41.820;23.490;2022-08-21T00:06:08;2.50;;;1.90;;
10365;SDS011;5229;41.820;23.490;2022-08-21T00:08:35;3.00;;;1.83;;
10365;SDS011;5229;41.820;23.490;2022-08-21T00:11:04;4.50;;;1.90;;
10365;SDS011;5229;41.820;23.490;2022-08-21T00:13:32;4.47;;;1.87;;
10365;SDS011;5229;41.820;23.490;2022-08-21T00:15:59;2.50;;;1.70;;
10365;SDS011;5229;41.820;23.490;2022-08-21T00:18:26;4.43;;;2.07;;
10365;SDS011;5229;41.820;23.490;2022-08-21T00:20:53;4.83;;;2.13;;
10365;SDS011;5229;41.820;23.490;2022-08-21T00:23:21;4.70;;;2.30;;
10365;SDS011;5229;41.820;23.490;2022-08-21T00:25:47;3.47;;;2.30;;
10365;SDS011;5229;41.820;23.490;2022-08-21T00:28:16;4.57;;;2.17;;
10365;SDS011;5229;41.820;23.490;2022-08-21T00:30:44;4.83;;;2.13;;
10365;SDS011;5229;41.820;23.490;2022-08-21T00:33:11;2.20;;;2.00;;
10365;SDS011;5229;41.820;23.490;2022-08-21T00:35:39;3.37;;;2.10;;
10365;SDS011;5229;41.820;23.490;2022-08-21T00:41:30;5.27;;;2.43;;
10365;SDS011;5229;41.820;23.490;2022-08-21T00:47:20;3.80;;;2.03;;
10365;SDS011;5229;41.820;23.490;2022-08-21T00:49:47;3.23;;;2.50;;
10365;SDS011;5229;41.820;23.490;2022-08-21T00:52:15;3.60;;;2.17;;
10365;SDS011;5229;41.820;23.490;2022-08-21T00:54:45;4.93;;;2.50;;
10365;SDS011;5229;41.820;23.490;2022-08-21T00:57:16;3.30;;;2.50;;
10365;SDS011;5229;41.820;23.490;2022-08-21T00:59:49;2.60;;;2.40;;
10365;SDS011;5229;41.820;23.490;2022-08-21T01:02:21;3.10;;;2.27;;
10365;SDS011;5229;41.820;23.490;2022-08-21T01:04:48;4.30;;;2.43;;
10365;SDS011;5229;41.820;23.490;2022-08-21T01:07:15;3.90;;;2.70;;
10365;SDS011;5229;41.820;23.490;2022-08-21T01:09:42;3.90;;;3.13;;
10365;SDS011;5229;41.820;23.490;2022-08-21T01:12:12;3.27;;;2.80;;
10365;SDS011;5229;41.820;23.490;2022-08-21T01:14:40;4.60;;;2.87;;
10365;SDS011;5229;41.820;23.490;2022-08-21T01:17:07;3.77;;;2.87;;
10365;SDS011;5229;41.820;23.490;2022-08-21T01:19:37;5.00;;;2.83;;
10365;SDS011;5229;41.820;23.490;2022-08-21T01:22:06;2.97;;;2.67;;
10365;SDS011;5229;41.820;23.490;2022-08-21T01:24:33;2.87;;;2.60;;
10365;SDS011;5229;41.820;23.490;2022-08-21T01:27:00;2.70;;;2.50;;
10365;SDS011;5229;41.820;23.490;2022-08-21T01:29:30;3.53;;;2.60;;
10365;SDS011;5229;41.820;23.490;2022-08-21T01:32:04;5.10;;;3.17;;
10365;SDS011;5229;41.820;23.490;2022-08-21T01:34:32;7.07;;;3.10;;
10365;SDS011;5229;41.820;23.490;2022-08-21T01:40:25;5.80;;;3.13;;
10365;SDS011;5229;41.820;23.490;2022-08-21T01:42:51;4.07;;;2.77;;
10365;SDS011;5229;41.820;23.490;2022-08-21T01:45:18;2.87;;;2.53;;
10365;SDS011;5229;41.820;23.490;2022-08-21T01:47:45;4.27;;;2.93;;
10365;SDS011;5229;41.820;23.490;2022-08-21T01:50:16;4.93;;;2.73;;
10365;SDS011;5229;41.820;23.490;2022-08-21T01:52:44;5.73;;;2.70;;
10365;SDS011;5229;41.820;23.490;2022-08-21T01:55:11;4.23;;;2.97;;
10365;SDS011;5229;41.820;23.490;2022-08-21T01:57:40;3.77;;;2.47;;
10365;SDS011;5229;41.820;23.490;2022-08-21T02:00:08;4.43;;;2.77;;
10365;SDS011;5229;41.820;23.490;2022-08-21T02:02:38;2.87;;;2.40;;
10365;SDS011;5229;41.820;23.490;2022-08-21T02:05:06;3.03;;;2.67;;
10365;SDS011;5229;41.820;23.490;2022-08-21T02:07:38;3.40;;;2.43;;
10365;SDS011;5229;41.820;23.490;2022-08-21T02:10:06;3.80;;;2.67;;
10365;SDS011;5229;41.820;23.490;2022-08-21T02:12:35;2.93;;;2.53;;
10365;SDS011;5229;41.820;23.490;2022-08-21T02:15:04;2.83;;;2.53;;
10365;SDS011;5229;41.820;23.490;2022-08-21T02:17:39;4.03;;;2.50;;
10365;SDS011;5229;41.820;23.490;2022-08-21T02:20:08;4.30;;;3.00;;
10365;SDS011;5229;41.820;23.490;2022-08-21T02:22:37;3.47;;;2.60;;
10365;SDS011;5229;41.820;23.490;2022-08-21T02:25:04;6.60;;;3.00;;
10365;SDS011;5229;41.820;23.490;2022-08-21T02:27:36;2.90;;;2.37;;
10365;SDS011;5229;41.820;23.490;2022-08-21T02:30:06;3.70;;;2.97;;
10365;SDS011;5229;41.820;23.490;2022-08-21T02:32:35;2.90;;;2.40;;
10365;SDS011;5229;41.820;23.490;2022-08-21T02:38:24;6.13;;;2.50;;
10365;SDS011;5229;41.820;23.490;2022-08-21T02:40:53;2.77;;;2.23;;
10365;SDS011;5229;41.820;23.490;2022-08-21T02:43:22;2.93;;;2.67;;
10365;SDS011;5229;41.820;23.490;2022-08-21T02:45:52;4.20;;;2.20;;
10365;SDS011;5229;41.820;23.490;2022-08-21T02:48:21;3.23;;;2.57;;
10365;SDS011;5229;41.820;23.490;2022-08-21T02:50:52;5.47;;;2.80;;
10365;SDS011;5229;41.820;23.490;2022-08-21T02:53:21;5.63;;;2.80;;
10365;SDS011;5229;41.820;23.490;2022-08-21T02:55:49;5.93;;;2.73;;
10365;SDS011;5229;41.820;23.490;2022-08-21T02:58:19;3.57;;;2.13;;
10365;SDS011;5229;41.820;23.490;2022-08-21T03:00:47;3.73;;;2.70;;
10365;SDS011;5229;41.820;23.490;2022-08-21T03:03:16;4.83;;;2.20;;
10365;SDS011;5229;41.820;23.490;2022-08-21T03:05:43;3.07;;;2.67;;
10365;SDS011;5229;41.820;23.490;2022-08-21T03:08:11;4.10;;;2.80;;
10365;SDS011;5229;41.820;23.490;2022-08-21T03:10:40;3.73;;;3.00;;
10365;SDS011;5229;41.820;23.490;2022-08-21T03:13:09;5.50;;;2.97;;
10365;SDS011;5229;41.820;23.490;2022-08-21T03:15:37;5.03;;;2.80;;
10365;SDS011;5229;41.820;23.490;2022-08-21T03:18:05;5.90;;;3.63;;
10365;SDS011;5229;41.820;23.490;2022-08-21T03:20:34;4.27;;;3.40;;
10365;SDS011;5229;41.820;23.490;2022-08-21T03:23:02;5.00;;;3.17;;
10365;SDS011;5229;41.820;23.490;2022-08-21T03:25:31;3.43;;;3.13;;
10365;SDS011;5229;41.820;23.490;2022-08-21T03:31:20;3.77;;;3.13;;
10365;SDS011;5229;41.820;23.490;2022-08-21T03:33:47;3.77;;;2.90;;
10365;SDS011;5229;41.820;23.490;2022-08-21T03:36:15;3.00;;;2.70;;
10365;SDS011;5229;41.820;23.490;2022-08-21T03:38:42;2.97;;;2.40;;
10365;SDS011;5229;41.820;23.490;2022-08-21T03:41:08;2.93;;;2.63;;
10365;SDS011;5229;41.820;23.490;2022-08-21T03:43:35;3.77;;;3.00;;
10365;SDS011;5229;41.820;23.490;2022-08-21T03:46:04;2.90;;;2.63;;
10365;SDS011;5229;41.820;23.490;2022-08-21T03:48:31;2.80;;;2.40;;
10365;SDS011;5229;41.820;23.490;2022-08-21T03:50:59;2.70;;;2.50;;
10365;SDS011;5229;41.820;23.490;2022-08-21T03:53:28;2.03;;;1.80;;
10365;SDS011;5229;41.820;23.490;2022-08-21T03:55:55;2.37;;;2.00;;
10365;SDS011;5229;41.820;23.490;2022-08-21T03:58:23;2.53;;;2.13;;
10365;SDS011;5229;41.820;23.490;2022-08-21T04:00:52;3.10;;;2.40;;
10365;SDS011;5229;41.820;23.490;2022-08-21T04:03:22;3.40;;;2.60;;
10365;SDS011;5229;41.820;23.490;2022-08-21T04:05:50;2.50;;;2.30;;
10365;SDS011;5229;41.820;23.490;2022-08-21T04:08:17;2.90;;;2.60;;
10365;SDS011;5229;41.820;23.490;2022-08-21T04:10:46;3.60;;;3.20;;
10365;SDS011;5229;41.820;23.490;2022-08-21T04:13:16;3.30;;;3.00;;
10365;SDS011;5229;41.820;23.490;2022-08-21T04:15:43;3.03;;;2.70;;
10365;SDS011;5229;41.820;23.490;2022-08-21T04:18:10;4.30;;;3.63;;
10365;SDS011;5229;41.820;23.490;2022-08-21T04:23:58;3.10;;;2.80;;
10365;SDS011;5229;41.820;23.490;2022-08-21T04:32:35;2.80;;;2.60;;
10365;SDS011;5229;41.820;23.490;2022-08-21T04:35:03;2.87;;;2.57;;
10365;SDS011;5229;41.820;23.490;2022-08-21T04:37:31;2.70;;;2.50;;
10365;SDS011;5229;41.820;23.490;2022-08-21T04:39:58;3.13;;;2.30;;
10365;SDS011;5229;41.820;23.490;2022-08-21T04:42:25;2.50;;;2.30;;
10365;SDS011;5229;41.820;23.490;2022-08-21T04:44:53;2.10;;;1.90;;
10365;SDS011;5229;41.820;23.490;2022-08-21T04:47:21;2.17;;;1.97;;
10365;SDS011;5229;41.820;23.490;2022-08-21T04:49:48;4.13;;;3.03;;
10365;SDS011;5229;41.820;23.490;2022-08-21T04:52:16;2.70;;;2.27;;
10365;SDS011;5229;41.820;23.490;2022-08-21T04:54:47;2.70;;;2.50;;
10365;SDS011;5229;41.820;23.490;2022-08-21T04:57:15;2.87;;;2.67;;
10365;SDS011;5229;41.820;23.490;2022-08-21T04:59:43;3.27;;;2.97;;
10365;SDS011;5229;41.820;23.490;2022-08-21T05:02:13;2.60;;;2.40;;
10365;SDS011;5229;41.820;23.490;2022-08-21T05:04:43;3.23;;;2.93;;
10365;SDS011;5229;41.820;23.490;2022-08-21T05:07:15;3.03;;;2.73;;
10365;SDS011;5229;41.820;23.490;2022-08-21T05:09:53;3.47;;;2.80;;
10365;SDS011;5229;41.820;23.490;2022-08-21T05:12:20;3.43;;;3.10;;
10365;SDS011;5229;41.820;23.490;2022-08-21T05:14:48;3.17;;;2.90;;
10365;SDS011;5229;41.820;23.490;2022-08-21T05:17:15;4.73;;;3.30;;
10365;SDS011;5229;41.820;23.490;2022-08-21T05:26:26;2.83;;;2.63;;
10365;SDS011;5229;41.820;23.490;2022-08-21T05:28:53;2.60;;;2.40;;
10365;SDS011;5229;41.820;23.490;2022-08-21T05:31:20;2.50;;;2.30;;
10365;SDS011;5229;41.820;23.490;2022-08-21T05:33:47;2.10;;;1.97;;
10365;SDS011;5229;41.820;23.490;2022-08-21T05:36:14;1.90;;;1.70;;
10365;SDS011;5229;41.820;23.490;2022-08-21T05:38:40;3.37;;;1.90;;
10365;SDS011;5229;41.820;23.490;2022-08-21T05:41:08;2.53;;;1.80;;
10365;SDS011;5229;41.820;23.490;2022-08-21T05:43:37;1.80;;;1.70;;
10365;SDS011;5229;41.820;23.490;2022-08-21T05:46:04;1.77;;;1.67;;
10365;SDS011;5229;41.820;23.490;2022-08-21T05:48:33;1.50;;;1.40;;
10365;SDS011;5229;41.820;23.490;2022-08-21T05:51:04;1.57;;;1.47;;
10365;SDS011;5229;41.820;23.490;2022-08-21T05:53:32;1.57;;;1.47;;
10365;SDS011;5229;41.820;23.490;2022-08-21T05:55:59;3.57;;;1.70;;
10365;SDS011;5229;41.820;23.490;2022-08-21T05:58:28;1.73;;;1.63;;
10365;SDS011;5229;41.820;23.490;2022-08-21T06:00:57;1.83;;;1.50;;
10365;SDS011;5229;41.820;23.490;2022-08-21T06:03:27;1.67;;;1.57;;
10365;SDS011;5229;41.820;23.490;2022-08-21T06:05:55;3.60;;;2.27;;
10365;SDS011;5229;41.820;23.490;2022-08-21T06:08:23;2.57;;;1.93;;
10365;SDS011;5229;41.820;23.490;2022-08-21T06:10:53;1.80;;;1.70;;
10365;SDS011;5229;41.820;23.490;2022-08-21T06:13:22;3.73;;;2.10;;
10365;SDS011;5229;41.820;23.490;2022-08-21T06:18:54;3.87;;;3.40;;
10365;SDS011;5229;41.820;23.490;2022-08-21T06:21:21;4.77;;;4.27;;
10365;SDS011;5229;41.820;23.490;2022-08-21T06:23:48;10.63;;;5.03;;
10365;SDS011;5229;41.820;23.490;2022-08-21T06:26:14;12.93;;;9.10;;
10365;SDS011;5229;41.820;23.490;2022-08-21T06:28:41;8.13;;;6.60;;
10365;SDS011;5229;41.820;23.490;2022-08-21T06:31:09;9.57;;;6.03;;
10365;SDS011;5229;41.820;23.490;2022-08-21T06:33:37;11.90;;;5.73;;
10365;SDS011;5229;41.820;23.490;2022-08-21T06:36:06;6.73;;;5.07;;
10365;SDS011;5229;41.820;23.490;2022-08-21T06:38:34;6.43;;;4.80;;
10365;SDS011;5229;41.820;23.490;2022-08-21T06:41:01;7.23;;;4.97;;
10365;SDS011;5229;41.820;23.490;2022-08-21T06:43:28;6.90;;;5.07;;
10365;SDS011;5229;41.820;23.490;2022-08-21T06:45:55;10.00;;;4.93;;
10365;SDS011;5229;41.820;23.490;2022-08-21T06:48:22;7.60;;;5.43;;
10365;SDS011;5229;41.820;23.490;2022-08-21T06:50:49;12.17;;;5.53;;
10365;SDS011;5229;41.820;23.490;2022-08-21T06:53:18;5.73;;;5.17;;
10365;SDS011;5229;41.820;23.490;2022-08-21T06:55:47;6.17;;;5.37;;
10365;SDS011;5229;41.820;23.490;2022-08-21T06:58:14;8.10;;;5.43;;
10365;SDS011;5229;41.820;23.490;2022-08-21T07:00:43;7.77;;;5.03;;
10365;SDS011;5229;41.820;23.490;2022-08-21T07:03:18;9.13;;;5.03;;
10365;SDS011;5229;41.820;23.490;2022-08-21T07:05:46;5.63;;;4.97;;
10365;SDS011;5229;41.820;23.490;2022-08-21T07:11:36;6.30;;;5.37;;
10365;SDS011;5229;41.820;23.490;2022-08-21T07:14:04;5.20;;;4.70;;
10365;SDS011;5229;41.820;23.490;2022-08-21T07:16:31;4.73;;;4.23;;
10365;SDS011;5229;41.820;23.490;2022-08-21T07:18:57;5.53;;;4.70;;
10365;SDS011;5229;41.820;23.490;2022-08-21T07:21:24;6.73;;;5.17;;
10365;SDS011;5229;41.820;23.490;2022-08-21T07:23:51;6.90;;;4.80;;
10365;SDS011;5229;41.820;23.490;2022-08-21T07:26:20;4.97;;;4.47;;
10365;SDS011;5229;41.820;23.490;2022-08-21T07:28:50;5.77;;;4.33;;
10365;SDS011;5229;41.820;23.490;2022-08-21T07:31:17;4.97;;;4.30;;
10365;SDS011;5229;41.820;23.490;2022-08-21T07:33:46;4.67;;;3.90;;
10365;SDS011;5229;41.820;23.490;2022-08-21T07:36:13;4.53;;;3.80;;
10365;SDS011;5229;41.820;23.490;2022-08-21T07:38:40;4.03;;;3.63;;
10365;SDS011;5229;41.820;23.490;2022-08-21T07:41:10;5.40;;;3.83;;
10365;SDS011;5229;41.820;23.490;2022-08-21T07:43:41;5.07;;;4.53;;
10365;SDS011;5229;41.820;23.490;2022-08-21T07:46:09;5.57;;;3.63;;
10365;SDS011;5229;41.820;23.490;2022-08-21T07:48:36;5.27;;;3.50;;
10365;SDS011;5229;41.820;23.490;2022-08-21T07:51:05;7.40;;;4.80;;
10365;SDS011;5229;41.820;23.490;2022-08-21T07:53:33;7.53;;;4.50;;
10365;SDS011;5229;41.820;23.490;2022-08-21T07:56:00;5.23;;;4.43;;
10365;SDS011;5229;41.820;23.490;2022-08-21T07:58:28;5.83;;;4.10;;
10365;SDS011;5229;41.820;23.490;2022-08-21T08:04:18;4.93;;;4.43;;
10365;SDS011;5229;41.820;23.490;2022-08-21T08:06:44;4.23;;;3.83;;
10365;SDS011;5229;41.820;23.490;2022-08-21T08:09:11;5.23;;;3.57;;
10365;SDS011;5229;41.820;23.490;2022-08-21T08:11:39;4.67;;;4.00;;
10365;SDS011;5229;41.820;23.490;2022-08-21T08:14:08;4.73;;;4.30;;
10365;SDS011;5229;41.820;23.490;2022-08-21T08:16:35;4.33;;;3.93;;
10365;SDS011;5229;41.820;23.490;2022-08-21T08:19:02;4.17;;;3.77;;
10365;SDS011;5229;41.820;23.490;2022-08-21T08:21:30;5.10;;;4.50;;
10365;SDS011;5229;41.820;23.490;2022-08-21T08:23:58;5.93;;;4.60;;
10365;SDS011;5229;41.820;23.490;2022-08-21T08:26:25;6.37;;;4.90;;
10365;SDS011;5229;41.820;23.490;2022-08-21T08:28:52;5.93;;;4.87;;
10365;SDS011;5229;41.820;23.490;2022-08-21T08:31:19;5.93;;;4.87;;
10365;SDS011;5229;41.820;23.490;2022-08-21T08:33:46;5.38;;;4.22;;
10365;SDS011;5229;41.820;23.490;2022-08-21T08:36:14;6.03;;;4.43;;
10365;SDS011;5229;41.820;23.490;2022-08-21T08:42:06;4.55;;;4.07;;
10365;SDS011;5229;41.820;23.490;2022-08-21T08:44:36;4.38;;;4.05;;
10365;SDS011;5229;41.820;23.490;2022-08-21T08:53:48;5.10;;;4.60;;
10365;SDS011;5229;41.820;23.490;2022-08-21T08:56:21;4.43;;;4.03;;
10365;SDS011;5229;41.820;23.490;2022-08-21T09:02:15;5.28;;;4.43;;
10365;SDS011;5229;41.820;23.490;2022-08-21T09:08:11;6.28;;;4.93;;
10365;SDS011;5229;41.820;23.490;2022-08-21T09:10:48;5.20;;;4.45;;
10365;SDS011;5229;41.820;23.490;2022-08-21T09:13:25;4.95;;;4.55;;
10365;SDS011;5229;41.820;23.490;2022-08-21T09:16:00;4.60;;;4.15;;
10365;SDS011;5229;41.820;23.490;2022-08-21T09:18:42;6.35;;;4.45;;
10365;SDS011;5229;41.820;23.490;2022-08-21T09:21:21;6.20;;;4.75;;
10365;SDS011;5229;41.820;23.490;2022-08-21T09:23:55;8.13;;;5.15;;
10365;SDS011;5229;41.820;23.490;2022-08-21T09:26:27;6.30;;;4.50;;
10365;SDS011;5229;41.820;23.490;2022-08-21T09:28:58;5.63;;;5.07;;
10365;SDS011;5229;41.820;23.490;2022-08-21T09:31:28;8.77;;;5.70;;
10365;SDS011;5229;41.820;23.490;2022-08-21T09:33:59;5.68;;;5.07;;
10365;SDS011;5229;41.820;23.490;2022-08-21T09:36:30;6.80;;;5.25;;
10365;SDS011;5229;41.820;23.490;2022-08-21T09:39:02;6.53;;;5.53;;
10365;SDS011;5229;41.820;23.490;2022-08-21T09:41:31;6.25;;;5.40;;
10365;SDS011;5229;41.820;23.490;2022-08-21T09:44:00;5.40;;;4.88;;
10365;SDS011;5229;41.820;23.490;2022-08-21T09:46:28;6.82;;;4.85;;
10365;SDS011;5229;41.820;23.490;2022-08-21T09:48:55;7.55;;;4.97;;
10365;SDS011;5229;41.820;23.490;2022-08-21T09:51:26;7.95;;;5.03;;
10365;SDS011;5229;41.820;23.490;2022-08-21T09:53:56;5.60;;;4.97;;
10365;SDS011;5229;41.820;23.490;2022-08-21T10:03:16;5.85;;;4.88;;
10365;SDS011;5229;41.820;23.490;2022-08-21T10:05:53;5.38;;;4.85;;
10365;SDS011;5229;41.820;23.490;2022-08-21T10:08:25;6.80;;;5.03;;
10365;SDS011;5229;41.820;23.490;2022-08-21T10:10:55;8.15;;;5.57;;
10365;SDS011;5229;41.820;23.490;2022-08-21T10:13:28;6.47;;;5.72;;
10365;SDS011;5229;41.820;23.490;2022-08-21T10:16:08;5.45;;;4.63;;
10365;SDS011;5229;41.820;23.490;2022-08-21T10:18:46;7.78;;;4.22;;
10365;SDS011;5229;41.820;23.490;2022-08-21T10:21:26;4.93;;;3.90;;
10365;SDS011;5229;41.820;23.490;2022-08-21T10:24:00;5.72;;;3.90;;
10365;SDS011;5229;41.820;23.490;2022-08-21T10:26:42;4.25;;;3.78;;
10365;SDS011;5229;41.820;23.490;2022-08-21T10:29:22;4.57;;;3.42;;
10365;SDS011;5229;41.820;23.490;2022-08-21T10:32:06;6.38;;;3.78;;
10365;SDS011;5229;41.820;23.490;2022-08-21T10:34:47;4.55;;;4.00;;
10365;SDS011;5229;41.820;23.490;2022-08-21T10:37:23;4.43;;;3.88;;
10365;SDS011;5229;41.820;23.490;2022-08-21T10:40:02;6.10;;;3.55;;
10365;SDS011;5229;41.820;23.490;2022-08-21T10:42:42;4.20;;;3.80;;
10365;SDS011;5229;41.820;23.490;2022-08-21T10:45:24;5.25;;;4.28;;
10365;SDS011;5229;41.820;23.490;2022-08-21T10:48:01;5.70;;;4.07;;
10365;SDS011;5229;41.820;23.490;2022-08-21T10:57:19;5.70;;;3.95;;
10365;SDS011;5229;41.820;23.490;2022-08-21T10:59:55;5.90;;;4.20;;
10365;SDS011;5229;41.820;23.490;2022-08-21T11:02:27;4.47;;;3.65;;
10365;SDS011;5229;41.820;23.490;2022-08-21T11:04:59;5.05;;;4.18;;
10365;SDS011;5229;41.820;23.490;2022-08-21T11:07:30;4.32;;;3.92;;
10365;SDS011;5229;41.820;23.490;2022-08-21T11:10:04;6.77;;;4.50;;
10365;SDS011;5229;41.820;23.490;2022-08-21T11:12:40;7.20;;;4.45;;
10365;SDS011;5229;41.820;23.490;2022-08-21T11:15:23;5.68;;;4.63;;
10365;SDS011;5229;41.820;23.490;2022-08-21T11:17:56;5.22;;;3.95;;
10365;SDS011;5229;41.820;23.490;2022-08-21T11:20:29;5.28;;;4.75;;
10365;SDS011;5229;41.820;23.490;2022-08-21T11:23:00;5.45;;;4.72;;
10365;SDS011;5229;41.820;23.490;2022-08-21T11:25:34;6.30;;;4.60;;
10365;SDS011;5229;41.820;23.490;2022-08-21T11:28:06;5.13;;;4.47;;
10365;SDS011;5229;41.820;23.490;2022-08-21T11:30:39;5.50;;;4.23;;
10365;SDS011;5229;41.820;23.490;2022-08-21T11:33:20;6.83;;;4.50;;
10365;SDS011;5229;41.820;23.490;2022-08-21T11:35:59;4.82;;;4.20;;
10365;SDS011;5229;41.820;23.490;2022-08-21T11:38:33;5.97;;;4.55;;
10365;SDS011;5229;41.820;23.490;2022-08-21T11:41:06;8.20;;;4.77;;
10365;SDS011;5229;41.820;23.490;2022-08-21T11:43:45;6.55;;;4.88;;
10365;SDS011;5229;41.820;23.490;2022-08-21T11:46:21;5.57;;;4.45;;
10365;SDS011;5229;41.820;23.490;2022-08-21T11:52:18;4.97;;;4.13;;
10365;SDS011;5229;41.820;23.490;2022-08-21T11:54:52;4.87;;;4.37;;
10365;SDS011;5229;41.820;23.490;2022-08-21T11:57:25;5.17;;;4.13;;
10365;SDS011;5229;41.820;23.490;2022-08-21T11:59:59;4.87;;;3.63;;
10365;SDS011;5229;41.820;23.490;2022-08-21T12:02:33;4.37;;;3.97;;
10365;SDS011;5229;41.820;23.490;2022-08-21T12:05:10;4.50;;;3.97;;
10365;SDS011;5229;41.820;23.490;2022-08-21T12:07:48;4.20;;;3.80;;
10365;SDS011;5229;41.820;23.490;2022-08-21T12:10:31;6.83;;;4.10;;
10365;SDS011;5229;41.820;23.490;2022-08-21T12:13:05;4.73;;;3.93;;
10365;SDS011;5229;41.820;23.490;2022-08-21T12:15:36;4.73;;;4.13;;
10365;SDS011;5229;41.820;23.490;2022-08-21T12:18:04;5.90;;;4.63;;
10365;SDS011;5229;41.820;23.490;2022-08-21T12:20:34;4.80;;;4.37;;
10365;SDS011;5229;41.820;23.490;2022-08-21T12:23:15;4.73;;;4.20;;
10365;SDS011;5229;41.820;23.490;2022-08-21T12:25:59;6.00;;;4.50;;
10365;SDS011;5229;41.820;23.490;2022-08-21T12:28:28;6.00;;;4.70;;
10365;SDS011;5229;41.820;23.490;2022-08-21T12:30:58;5.67;;;5.00;;
10365;SDS011;5229;41.820;23.490;2022-08-21T12:33:27;5.50;;;4.63;;
10365;SDS011;5229;41.820;23.490;2022-08-21T12:36:02;7.40;;;4.77;;
10365;SDS011;5229;41.820;23.490;2022-08-21T12:38:33;4.70;;;4.00;;
10365;SDS011;5229;41.820;23.490;2022-08-21T12:47:25;6.10;;;4.67;;
10365;SDS011;5229;41.820;23.490;2022-08-21T12:49:59;4.83;;;4.30;;
10365;SDS011;5229;41.820;23.490;2022-08-21T12:52:30;6.23;;;4.70;;
10365;SDS011;5229;41.820;23.490;2022-08-21T12:58:22;4.70;;;4.00;;
10365;SDS011;5229;41.820;23.490;2022-08-21T13:07:04;6.23;;;5.30;;
10365;SDS011;5229;41.820;23.490;2022-08-21T13:09:36;8.10;;;4.90;;
10365;SDS011;5229;41.820;23.490;2022-08-21T13:12:09;5.60;;;4.53;;
10365;SDS011;5229;41.820;23.490;2022-08-21T13:14:38;5.20;;;4.70;;
10365;SDS011;5229;41.820;23.490;2022-08-21T13:17:07;5.80;;;4.67;;
10365;SDS011;5229;41.820;23.490;2022-08-21T13:19:39;6.77;;;4.40;;
10365;SDS011;5229;41.820;23.490;2022-08-21T13:22:11;7.00;;;4.57;;
10365;SDS011;5229;41.820;23.490;2022-08-21T13:24:40;5.03;;;4.53;;
10365;SDS011;5229;41.820;23.490;2022-08-21T13:27:15;4.70;;;4.20;;
10365;SDS011;5229;41.820;23.490;2022-08-21T13:29:45;9.60;;;4.30;;
10365;SDS011;5229;41.820;23.490;2022-08-21T13:32:22;7.13;;;5.03;;
10365;SDS011;5229;41.820;23.490;2022-08-21T13:34:54;5.67;;;4.47;;
10365;SDS011;5229;41.820;23.490;2022-08-21T13:37:22;5.17;;;4.67;;
10365;SDS011;5229;41.820;23.490;2022-08-21T13:43:16;4.67;;;4.20;;
10365;SDS011;5229;41.820;23.490;2022-08-21T13:45:47;4.70;;;4.17;;
10365;SDS011;5229;41.820;23.490;2022-08-21T14:03:15;3.77;;;3.20;;
10365;SDS011;5229;41.820;23.490;2022-08-21T14:05:53;4.00;;;3.40;;
10365;SDS011;5229;41.820;23.490;2022-08-21T14:08:21;4.87;;;3.83;;
10365;SDS011;5229;41.820;23.490;2022-08-21T14:10:54;5.80;;;3.73;;
10365;SDS011;5229;41.820;23.490;2022-08-21T14:20:07;9.07;;;4.13;;
10365;SDS011;5229;41.820;23.490;2022-08-21T14:22:39;4.07;;;2.87;;
10365;SDS011;5229;41.820;23.490;2022-08-21T14:25:08;4.40;;;4.00;;
10365;SDS011;5229;41.820;23.490;2022-08-21T14:30:31;4.50;;;3.73;;
10365;SDS011;5229;41.820;23.490;2022-08-21T14:32:59;4.97;;;3.87;;
10365;SDS011;5229;41.820;23.490;2022-08-21T14:35:28;4.83;;;3.50;;
10365;SDS011;5229;41.820;23.490;2022-08-21T14:37:56;3.13;;;2.83;;
10365;SDS011;5229;41.820;23.490;2022-08-21T14:40:23;4.37;;;3.40;;
10365;SDS011;5229;41.820;23.490;2022-08-21T14:45:36;4.73;;;4.23;;
10365;SDS011;5229;41.820;23.490;2022-08-21T14:48:06;7.73;;;4.00;;
10365;SDS011;5229;41.820;23.490;2022-08-21T14:57:11;5.30;;;4.10;;
10365;SDS011;5229;41.820;23.490;2022-08-21T14:59:38;5.73;;;4.13;;
10365;SDS011;5229;41.820;23.490;2022-08-21T15:02:06;5.13;;;4.00;;
10365;SDS011;5229;41.820;23.490;2022-08-21T15:04:34;4.87;;;4.47;;
10365;SDS011;5229;41.820;23.490;2022-08-21T15:07:01;5.63;;;5.03;;
10365;SDS011;5229;41.820;23.490;2022-08-21T15:12:15;5.32;;;3.97;;
10365;SDS011;5229;41.820;23.490;2022-08-21T15:17:27;4.83;;;4.33;;
10365;SDS011;5229;41.820;23.490;2022-08-21T15:23:15;4.33;;;3.93;;
10365;SDS011;5229;41.820;23.490;2022-08-21T15:25:43;4.63;;;4.13;;
10365;SDS011;5229;41.820;23.490;2022-08-21T15:31:35;5.93;;;4.27;;
10365;SDS011;5229;41.820;23.490;2022-08-21T15:34:02;5.60;;;3.97;;
10365;SDS011;5229;41.820;23.490;2022-08-21T15:36:29;4.15;;;3.72;;
10365;SDS011;5229;41.820;23.490;2022-08-21T15:38:56;4.40;;;3.83;;
10365;SDS011;5229;41.820;23.490;2022-08-21T15:44:26;4.00;;;3.60;;
10365;SDS011;5229;41.820;23.490;2022-08-21T15:46:55;5.50;;;4.00;;
10365;SDS011;5229;41.820;23.490;2022-08-21T15:49:23;4.43;;;4.00;;
10365;SDS011;5229;41.820;23.490;2022-08-21T15:55:11;4.47;;;3.73;;
10365;SDS011;5229;41.820;23.490;2022-08-21T15:57:42;3.63;;;3.30;;
10365;SDS011;5229;41.820;23.490;2022-08-21T16:00:12;4.20;;;3.47;;
10365;SDS011;5229;41.820;23.490;2022-08-21T16:02:44;3.80;;;3.47;;
10365;SDS011;5229;41.820;23.490;2022-08-21T16:05:13;3.80;;;3.40;;
10365;SDS011;5229;41.820;23.490;2022-08-21T16:07:43;4.77;;;3.73;;
10365;SDS011;5229;41.820;23.490;2022-08-21T16:10:11;4.10;;;3.70;;
10365;SDS011;5229;41.820;23.490;2022-08-21T16:12:41;4.90;;;3.83;;
10365;SDS011;5229;41.820;23.490;2022-08-21T16:15:11;4.63;;;3.83;;
10365;SDS011;5229;41.820;23.490;2022-08-21T16:17:40;5.40;;;3.40;;
10365;SDS011;5229;41.820;23.490;2022-08-21T16:20:14;4.10;;;3.50;;
10365;SDS011;5229;41.820;23.490;2022-08-21T16:22:42;3.40;;;3.10;;
10365;SDS011;5229;41.820;23.490;2022-08-21T16:25:09;3.77;;;3.03;;
10365;SDS011;5229;41.820;23.490;2022-08-21T16:27:37;3.80;;;3.40;;
10365;SDS011;5229;41.820;23.490;2022-08-21T16:30:06;4.00;;;3.30;;
10365;SDS011;5229;41.820;23.490;2022-08-21T16:32:33;3.90;;;3.50;;
10365;SDS011;5229;41.820;23.490;2022-08-21T16:35:02;3.67;;;3.17;;
10365;SDS011;5229;41.820;23.490;2022-08-21T16:37:29;5.37;;;3.77;;
10365;SDS011;5229;41.820;23.490;2022-08-21T16:39:56;3.77;;;3.40;;
10365;SDS011;5229;41.820;23.490;2022-08-21T16:42:24;4.20;;;3.53;;
10365;SDS011;5229;41.820;23.490;2022-08-21T16:44:52;3.70;;;3.30;;
10365;SDS011;5229;41.820;23.490;2022-08-21T16:47:21;3.80;;;3.20;;
10365;SDS011;5229;41.820;23.490;2022-08-21T16:49:48;4.23;;;3.60;;
10365;SDS011;5229;41.820;23.490;2022-08-21T16:52:17;4.53;;;3.20;;
10365;SDS011;5229;41.820;23.490;2022-08-21T16:54:44;5.20;;;3.47;;
10365;SDS011;5229;41.820;23.490;2022-08-21T16:57:11;4.17;;;3.77;;
10365;SDS011;5229;41.820;23.490;2022-08-21T16:59:39;4.33;;;3.47;;
10365;SDS011;5229;41.820;23.490;2022-08-21T17:02:07;4.53;;;3.70;;
10365;SDS011;5229;41.820;23.490;2022-08-21T17:04:46;3.63;;;3.33;;
10365;SDS011;5229;41.820;23.490;2022-08-21T17:07:13;5.17;;;3.60;;
10365;SDS011;5229;41.820;23.490;2022-08-21T17:09:42;4.00;;;3.23;;
10365;SDS011;5229;41.820;23.490;2022-08-21T17:12:08;3.80;;;2.90;;
10365;SDS011;5229;41.820;23.490;2022-08-21T17:14:36;4.07;;;3.20;;
10365;SDS011;5229;41.820;23.490;2022-08-21T17:17:03;3.40;;;3.10;;
10365;SDS011;5229;41.820;23.490;2022-08-21T17:19:32;6.80;;;3.70;;
10365;SDS011;5229;41.820;23.490;2022-08-21T17:21:58;8.47;;;3.20;;
10365;SDS011;5229;41.820;23.490;2022-08-21T17:24:26;4.47;;;2.93;;
10365;SDS011;5229;41.820;23.490;2022-08-21T17:26:54;5.17;;;3.70;;
10365;SDS011;5229;41.820;23.490;2022-08-21T17:29:24;6.00;;;3.63;;
10365;SDS011;5229;41.820;23.490;2022-08-21T17:31:55;5.80;;;3.67;;